createdAt,value
2018-06-16T00:00:09.402Z,17.00
2018-06-16T00:02:38.994Z,17.00
2018-06-16T00:10:06.452Z,16.90
2018-06-16T00:12:35.903Z,16.90
2018-06-16T00:15:05.403Z,16.90
2018-06-16T00:17:34.715Z,16.90
2018-06-16T00:20:04.064Z,16.90
2018-06-16T00:22:33.371Z,16.90
2018-06-16T00:25:02.636Z,16.90
2018-06-16T00:27:31.961Z,16.90
2018-06-16T00:30:01.224Z,16.80
2018-06-16T00:32:30.508Z,16.80
2018-06-16T00:34:59.755Z,16.80
2018-06-16T00:37:29.035Z,16.70
2018-06-16T00:39:58.316Z,16.70
2018-06-16T00:42:27.611Z,16.70
2018-06-16T00:44:56.892Z,16.70
2018-06-16T00:49:55.011Z,16.70
2018-06-16T00:52:24.315Z,16.70
2018-06-16T00:54:53.572Z,16.70
2018-06-16T00:59:57.335Z,16.70
2018-06-16T01:02:26.635Z,16.80
2018-06-16T01:04:55.943Z,16.70
2018-06-16T01:07:25.348Z,16.60
2018-06-16T01:09:54.883Z,16.50
2018-06-16T01:12:24.428Z,16.50
2018-06-16T01:14:53.905Z,16.50
2018-06-16T01:17:23.602Z,16.50
2018-06-16T01:19:53.132Z,16.50
2018-06-16T01:22:29.685Z,16.40
2018-06-16T01:24:59.189Z,16.40
2018-06-16T01:27:30.064Z,16.30
2018-06-16T01:29:59.535Z,16.40
2018-06-16T01:32:29.096Z,16.40
2018-06-16T01:34:58.672Z,16.40
2018-06-16T01:37:28.381Z,16.30
2018-06-16T01:39:57.919Z,16.30
2018-06-16T01:42:27.461Z,16.30
2018-06-16T01:44:56.819Z,16.30
2018-06-16T01:47:26.129Z,16.30
2018-06-16T01:49:55.543Z,16.30
2018-06-16T01:52:25.021Z,16.30
2018-06-16T01:54:54.753Z,16.40
2018-06-16T01:57:24.244Z,16.30
2018-06-16T01:59:53.707Z,16.30
2018-06-16T02:02:23.081Z,16.30
2018-06-16T02:04:52.425Z,16.20
2018-06-16T02:07:21.727Z,16.20
2018-06-16T02:09:51.303Z,16.10
2018-06-16T02:12:20.664Z,16.10
2018-06-16T02:14:50.079Z,15.90
2018-06-16T02:17:19.435Z,15.90
2018-06-16T02:19:48.775Z,15.90
2018-06-16T02:22:18.100Z,15.90
2018-06-16T02:24:47.452Z,16.00
2018-06-16T02:29:45.691Z,16.00
2018-06-16T02:32:15.027Z,16.00
2018-06-16T02:34:44.684Z,16.00
2018-06-16T02:37:14.272Z,16.00
2018-06-16T02:39:43.879Z,15.90
2018-06-16T02:42:13.409Z,15.80
2018-06-16T02:44:42.739Z,15.80
2018-06-16T02:47:12.066Z,15.80
2018-06-16T02:49:41.544Z,15.90
2018-06-16T02:52:10.879Z,15.90
2018-06-16T02:54:40.309Z,15.90
2018-06-16T02:57:09.544Z,15.80
2018-06-16T02:59:38.889Z,15.70
2018-06-16T03:04:37.161Z,15.70
2018-06-16T03:07:06.687Z,15.80
2018-06-16T03:12:05.421Z,15.80
2018-06-16T03:14:35.167Z,15.80
2018-06-16T03:17:04.824Z,15.80
2018-06-16T03:19:34.411Z,15.80
2018-06-16T03:22:03.766Z,15.70
2018-06-16T03:24:33.098Z,15.70
2018-06-16T03:27:02.475Z,15.70
2018-06-16T03:29:31.800Z,15.60
2018-06-16T03:32:01.175Z,15.50
2018-06-16T03:34:30.507Z,15.50
2018-06-16T03:36:59.989Z,15.60
2018-06-16T03:39:29.343Z,15.60
2018-06-16T03:44:27.625Z,15.60
2018-06-16T03:46:56.987Z,15.60
2018-06-16T03:49:26.320Z,15.70
2018-06-16T03:51:55.675Z,15.60
2018-06-16T03:54:24.999Z,15.70
2018-06-16T03:56:54.344Z,15.70
2018-06-16T04:01:52.640Z,15.70
2018-06-16T04:04:21.990Z,15.70
2018-06-16T04:06:51.377Z,15.70
2018-06-16T04:09:20.786Z,15.60
2018-06-16T04:11:50.173Z,15.50
2018-06-16T04:14:19.580Z,15.60
2018-06-16T04:16:48.911Z,15.50
2018-06-16T04:19:18.255Z,15.50
2018-06-16T04:24:16.471Z,15.60
2018-06-16T04:26:45.822Z,15.70
2018-06-16T04:29:15.143Z,15.70
2018-06-16T04:31:44.494Z,15.70
2018-06-16T04:34:13.801Z,15.60
2018-06-16T04:36:43.118Z,15.70
2018-06-16T04:39:12.529Z,15.70
2018-06-16T04:41:42.151Z,15.70
2018-06-16T04:46:40.692Z,15.90
2018-06-16T04:49:10.299Z,16.00
2018-06-16T04:51:39.788Z,16.10
2018-06-16T04:54:09.353Z,16.20
2018-06-16T04:56:38.911Z,16.20
2018-06-16T04:59:08.568Z,16.30
2018-06-16T05:01:38.025Z,16.40
2018-06-16T05:04:07.641Z,16.40
2018-06-16T05:06:37.195Z,16.50
2018-06-16T05:09:08.648Z,16.60
2018-06-16T05:11:38.264Z,16.70
2018-06-16T05:14:07.856Z,16.70
2018-06-16T05:16:37.436Z,16.80
2018-06-16T05:19:07.022Z,16.80
2018-06-16T05:21:36.603Z,16.90
2018-06-16T05:24:06.282Z,17.00
2018-06-16T05:26:35.787Z,17.00
2018-06-16T05:29:05.400Z,17.00
2018-06-16T05:31:34.939Z,17.00
2018-06-16T05:34:04.572Z,17.00
2018-06-16T05:36:33.887Z,17.10
2018-06-16T05:39:03.492Z,17.20
2018-06-16T05:41:33.104Z,17.30
2018-06-16T05:44:02.703Z,17.30
2018-06-16T05:46:32.026Z,17.40
2018-06-16T05:49:01.396Z,17.50
2018-06-16T05:51:30.726Z,17.50
2018-06-16T05:54:00.190Z,17.60
2018-06-16T05:56:29.553Z,17.70
2018-06-16T05:58:58.912Z,17.70
2018-06-16T06:01:28.243Z,17.80
2018-06-16T06:03:57.615Z,17.80
2018-06-16T06:06:26.947Z,17.90
2018-06-16T06:08:56.317Z,17.90
2018-06-16T06:11:25.761Z,17.90
2018-06-16T06:13:55.478Z,17.90
2018-06-16T06:16:24.854Z,17.90
2018-06-16T06:18:54.199Z,17.90
2018-06-16T06:21:23.525Z,18.00
2018-06-16T06:23:52.904Z,18.00
2018-06-16T06:26:22.215Z,18.10
2018-06-16T06:28:51.564Z,18.20
2018-06-16T06:31:20.983Z,18.20
2018-06-16T06:33:50.295Z,18.20
2018-06-16T06:36:19.670Z,18.30
2018-06-16T06:38:48.986Z,18.40
2018-06-16T06:41:18.556Z,18.40
2018-06-16T06:43:47.890Z,18.40
2018-06-16T06:46:17.204Z,18.20
2018-06-16T06:48:46.503Z,18.20
2018-06-16T06:51:15.912Z,18.20
2018-06-16T06:53:45.251Z,18.30
2018-06-16T06:56:14.607Z,18.40
2018-06-16T06:58:43.907Z,18.50
2018-06-16T07:01:13.229Z,18.60
2018-06-16T07:03:42.547Z,18.70
2018-06-16T07:08:40.714Z,18.90
2018-06-16T07:11:10.120Z,19.00
2018-06-16T07:13:39.495Z,19.10
2018-06-16T07:16:08.908Z,19.20
2018-06-16T07:18:38.211Z,19.30
2018-06-16T07:21:07.560Z,19.40
2018-06-16T07:23:36.933Z,19.50
2018-06-16T07:28:35.162Z,19.60
2018-06-16T07:31:04.532Z,19.70
2018-06-16T07:33:33.855Z,19.70
2018-06-16T07:36:03.304Z,19.80
2018-06-16T07:38:32.644Z,19.90
2018-06-16T07:41:02.030Z,20.00
2018-06-16T07:43:31.363Z,20.10
2018-06-16T07:46:00.744Z,20.20
2018-06-16T07:48:30.159Z,20.30
2018-06-16T07:50:59.492Z,20.50
2018-06-16T07:53:28.875Z,20.60
2018-06-16T07:55:58.232Z,20.80
2018-06-16T07:58:27.643Z,20.90
2018-06-16T08:00:57.023Z,21.00
2018-06-16T08:03:26.580Z,21.20
2018-06-16T08:08:25.375Z,21.50
2018-06-16T08:13:24.024Z,21.60
2018-06-16T08:15:53.536Z,21.80
2018-06-16T08:18:23.134Z,21.80
2018-06-16T08:20:52.712Z,21.90
2018-06-16T08:23:22.429Z,22.00
2018-06-16T08:25:52.007Z,22.00
2018-06-16T08:28:21.640Z,22.00
2018-06-16T08:30:51.232Z,22.00
2018-06-16T08:33:20.927Z,22.00
2018-06-16T08:35:50.423Z,22.10
2018-06-16T08:38:20.197Z,22.10
2018-06-16T08:40:49.773Z,22.10
2018-06-16T08:45:48.508Z,22.10
2018-06-16T08:48:18.134Z,22.10
2018-06-16T08:50:47.784Z,22.20
2018-06-16T08:53:17.408Z,22.20
2018-06-16T08:55:46.791Z,22.30
2018-06-16T08:58:16.132Z,22.40
2018-06-16T09:00:45.506Z,22.50
2018-06-16T09:03:14.841Z,22.60
2018-06-16T09:05:44.331Z,22.80
2018-06-16T09:08:13.977Z,22.90
2018-06-16T09:10:43.592Z,23.10
2018-06-16T09:13:13.207Z,23.20
2018-06-16T09:15:42.912Z,23.40
2018-06-16T09:18:12.456Z,23.50
2018-06-16T09:20:41.843Z,23.70
2018-06-16T09:25:40.698Z,24.00
2018-06-16T09:28:10.114Z,24.10
2018-06-16T09:30:39.476Z,24.10
2018-06-16T09:35:37.848Z,24.00
2018-06-16T09:38:07.220Z,24.10
2018-06-16T09:40:36.686Z,24.20
2018-06-16T09:43:06.308Z,24.20
2018-06-16T09:45:35.998Z,24.10
2018-06-16T09:48:05.659Z,24.10
2018-06-16T09:50:35.195Z,24.10
2018-06-16T09:53:04.721Z,24.20
2018-06-16T09:58:03.609Z,24.30
2018-06-16T10:00:38.344Z,24.40
2018-06-16T10:05:36.891Z,24.60
2018-06-16T10:08:06.281Z,24.70
2018-06-16T10:10:35.725Z,24.80
2018-06-16T10:13:05.181Z,24.90
2018-06-16T10:15:42.008Z,24.80
2018-06-16T10:20:40.420Z,25.00
2018-06-16T10:25:38.862Z,25.10
2018-06-16T10:28:08.284Z,25.10
2018-06-16T10:30:37.796Z,25.10
2018-06-16T10:33:07.390Z,25.10
2018-06-16T10:35:36.892Z,25.10
2018-06-16T10:38:06.378Z,25.20
2018-06-16T10:40:35.772Z,25.30
2018-06-16T10:43:05.191Z,25.40
2018-06-16T10:45:34.776Z,25.50
2018-06-16T10:48:04.479Z,25.60
2018-06-16T10:53:03.399Z,25.70
2018-06-16T10:55:33.186Z,25.60
2018-06-16T10:58:02.801Z,25.60
2018-06-16T11:03:01.636Z,25.70
2018-06-16T11:05:31.312Z,25.70
2018-06-16T11:08:00.925Z,25.70
2018-06-16T11:10:30.610Z,25.70
2018-06-16T11:13:00.219Z,25.60
2018-06-16T11:15:30.012Z,25.60
2018-06-16T11:17:59.644Z,25.50
2018-06-16T11:20:29.139Z,25.40
2018-06-16T11:22:58.707Z,25.40
2018-06-16T11:25:28.331Z,25.50
2018-06-16T11:27:57.813Z,25.60
2018-06-16T11:30:27.332Z,25.70
2018-06-16T11:32:56.680Z,25.60
2018-06-16T11:35:26.082Z,25.70
2018-06-16T11:37:55.434Z,25.70
2018-06-16T11:40:24.783Z,25.80
2018-06-16T11:42:54.156Z,25.80
2018-06-16T11:45:23.460Z,25.70
2018-06-16T11:47:52.836Z,25.80
2018-06-16T11:50:22.376Z,25.70
2018-06-16T11:52:51.923Z,25.80
2018-06-16T11:55:21.493Z,25.80
2018-06-16T11:57:51.132Z,26.00
2018-06-16T12:02:49.758Z,26.00
2018-06-16T12:05:19.318Z,25.90
2018-06-16T12:07:48.827Z,25.80
2018-06-16T12:10:18.537Z,25.70
2018-06-16T12:12:48.910Z,25.50
2018-06-16T12:15:18.474Z,25.40
2018-06-16T12:17:48.077Z,25.40
2018-06-16T12:20:17.672Z,25.30
2018-06-16T12:22:47.168Z,25.40
2018-06-16T12:25:16.595Z,25.30
2018-06-16T12:27:46.088Z,25.20
2018-06-16T12:30:15.555Z,25.30
2018-06-16T12:32:45.165Z,25.30
2018-06-16T12:35:14.792Z,25.40
2018-06-16T12:37:44.355Z,25.40
2018-06-16T12:40:13.831Z,25.50
2018-06-16T12:42:43.576Z,25.60
2018-06-16T12:45:13.099Z,25.80
2018-06-16T12:47:42.570Z,26.00
2018-06-16T12:50:12.057Z,26.00
2018-06-16T12:52:41.531Z,26.20
2018-06-16T12:55:10.861Z,26.30
2018-06-16T12:57:40.231Z,26.30
2018-06-16T13:00:09.586Z,26.30
2018-06-16T13:02:38.885Z,26.40
2018-06-16T13:05:08.590Z,26.50
2018-06-16T13:07:37.916Z,26.50
2018-06-16T13:12:36.004Z,26.50
2018-06-16T13:17:34.206Z,26.70
2018-06-16T13:22:32.401Z,26.60
2018-06-16T13:25:01.986Z,26.50
2018-06-16T13:30:00.506Z,26.40
2018-06-16T13:32:29.995Z,26.30
2018-06-16T13:34:59.531Z,26.20
2018-06-16T13:37:29.076Z,26.10
2018-06-16T13:39:58.575Z,26.10
2018-06-16T13:42:28.124Z,26.10
2018-06-16T13:49:55.778Z,26.40
2018-06-16T13:52:25.275Z,26.40
2018-06-16T13:54:54.842Z,26.40
2018-06-16T13:57:24.422Z,26.40
2018-06-16T13:59:53.978Z,26.50
2018-06-16T14:02:23.432Z,26.40
2018-06-16T14:04:52.924Z,26.50
2018-06-16T14:07:22.238Z,26.60
2018-06-16T14:09:51.495Z,26.70
2018-06-16T14:12:21.007Z,26.80
2018-06-16T14:14:50.405Z,26.90
2018-06-16T14:17:19.683Z,27.00
2018-06-16T14:19:49.015Z,27.10
2018-06-16T14:22:18.310Z,27.00
2018-06-16T14:24:47.643Z,27.00
2018-06-16T14:27:16.948Z,27.20
2018-06-16T14:29:46.280Z,27.30
2018-06-16T14:32:15.575Z,27.50
2018-06-16T14:34:44.926Z,27.60
2018-06-16T14:37:14.243Z,27.70
2018-06-16T14:39:43.626Z,27.90
2018-06-16T14:42:13.197Z,28.00
2018-06-16T14:44:42.785Z,28.00
2018-06-16T14:49:41.392Z,28.10
2018-06-16T14:52:10.898Z,28.10
2018-06-16T14:54:40.183Z,28.20
2018-06-16T14:57:09.520Z,28.20
2018-06-16T14:59:38.865Z,28.40
2018-06-16T15:02:08.206Z,28.50
2018-06-16T15:07:06.386Z,28.20
2018-06-16T15:09:35.741Z,28.00
2018-06-16T15:14:33.854Z,27.80
2018-06-16T15:17:03.208Z,28.00
2018-06-16T15:19:32.487Z,28.00
2018-06-16T15:22:01.940Z,27.90
2018-06-16T15:24:31.459Z,27.70
2018-06-16T15:27:01.026Z,27.60
2018-06-16T15:29:30.576Z,27.30
2018-06-16T15:32:00.095Z,27.10
2018-06-16T15:34:29.629Z,26.90
2018-06-16T15:36:58.940Z,26.80
2018-06-16T15:39:28.309Z,26.70
2018-06-16T15:41:57.671Z,26.70
2018-06-16T15:44:26.984Z,26.80
2018-06-16T15:46:56.336Z,26.70
2018-06-16T15:49:25.635Z,26.70
2018-06-16T15:51:54.992Z,26.70
2018-06-16T15:54:24.286Z,26.60
2018-06-16T15:56:53.760Z,26.60
2018-06-16T15:59:23.057Z,26.50
2018-06-16T16:01:52.375Z,26.70
2018-06-16T16:04:21.680Z,26.90
2018-06-16T16:06:50.991Z,27.10
2018-06-16T16:09:20.329Z,27.20
2018-06-16T16:14:18.547Z,27.10
2018-06-16T16:16:48.711Z,26.90
2018-06-16T16:19:17.976Z,26.60
2018-06-16T16:21:47.277Z,26.40
2018-06-16T16:24:16.584Z,26.20
2018-06-16T16:26:45.895Z,26.10
2018-06-16T16:29:21.699Z,25.80
2018-06-16T16:31:51.148Z,25.50
2018-06-16T16:34:20.692Z,25.20
2018-06-16T16:36:50.248Z,25.10
2018-06-16T16:39:19.789Z,24.90
2018-06-16T16:41:49.432Z,24.80
2018-06-16T16:46:47.759Z,24.40
2018-06-16T16:49:17.104Z,24.30
2018-06-16T16:51:46.663Z,24.20
2018-06-16T16:54:16.291Z,24.10
2018-06-16T16:56:45.760Z,24.00
2018-06-16T16:59:15.347Z,24.00
2018-06-16T17:01:44.793Z,23.90
2018-06-16T17:04:14.311Z,23.90
2018-06-16T17:06:43.887Z,23.80
2018-06-16T17:09:13.439Z,23.80
2018-06-16T17:11:43.126Z,23.80
2018-06-16T17:14:12.707Z,23.80
2018-06-16T17:16:42.252Z,23.80
2018-06-16T17:19:11.816Z,24.10
2018-06-16T17:21:41.292Z,24.50
2018-06-16T17:24:10.799Z,24.90
2018-06-16T17:26:40.278Z,25.40
2018-06-16T17:29:09.828Z,25.70
2018-06-16T17:31:39.180Z,25.80
2018-06-16T17:34:08.761Z,25.80
2018-06-16T17:36:40.932Z,25.70
2018-06-16T17:39:11.044Z,25.60
2018-06-16T17:41:40.399Z,25.30
2018-06-16T17:44:09.724Z,25.10
2018-06-16T17:46:39.066Z,24.90
2018-06-16T17:49:08.457Z,24.80
2018-06-16T17:51:37.815Z,24.60
2018-06-16T17:54:07.668Z,24.40
2018-06-16T18:01:34.771Z,24.10
2018-06-16T18:04:04.130Z,24.10
2018-06-16T18:06:33.429Z,24.10
2018-06-16T18:09:02.872Z,24.10
2018-06-16T18:11:32.245Z,24.00
2018-06-16T18:16:30.465Z,23.90
2018-06-16T18:18:59.780Z,23.90
2018-06-16T18:21:29.139Z,23.90
2018-06-16T18:26:27.328Z,23.70
2018-06-16T18:28:56.687Z,23.60
2018-06-16T18:31:26.033Z,23.60
2018-06-16T18:33:55.423Z,23.50
2018-06-16T18:36:24.745Z,23.40
2018-06-16T18:41:22.951Z,23.40
2018-06-16T18:43:52.249Z,23.30
2018-06-16T18:46:21.619Z,23.20
2018-06-16T18:48:50.940Z,23.20
2018-06-16T18:53:49.106Z,23.10
2018-06-16T18:56:18.454Z,23.10
2018-06-16T18:58:47.759Z,23.00
2018-06-16T19:01:17.120Z,22.90
2018-06-16T19:06:15.344Z,22.80
2018-06-16T19:08:44.652Z,22.70
2018-06-16T19:11:13.995Z,22.60
2018-06-16T19:13:43.377Z,22.60
2018-06-16T19:16:12.721Z,22.50
2018-06-16T19:21:10.902Z,22.50
2018-06-16T19:23:40.172Z,22.40
2018-06-16T19:26:09.497Z,22.40
2018-06-16T19:28:38.829Z,22.30
2018-06-16T19:31:08.112Z,22.30
2018-06-16T19:33:37.431Z,22.20
2018-06-16T19:36:06.758Z,22.20
2018-06-16T19:38:36.072Z,22.20
2018-06-16T19:41:05.687Z,22.10
2018-06-16T19:43:35.005Z,22.10
2018-06-16T19:46:04.346Z,22.00
2018-06-16T19:48:33.686Z,22.00
2018-06-16T19:51:02.972Z,21.90
2018-06-16T19:53:32.260Z,21.80
2018-06-16T19:56:01.560Z,21.70
2018-06-16T19:58:30.870Z,21.60
2018-06-16T20:01:00.182Z,21.60
2018-06-16T20:03:29.484Z,21.50
2018-06-16T20:05:59.035Z,21.40
2018-06-16T20:08:31.142Z,21.40
2018-06-16T20:11:00.445Z,21.40
2018-06-16T20:13:29.784Z,21.40
2018-06-16T20:15:59.110Z,21.30
2018-06-16T20:18:28.464Z,21.30
2018-06-16T20:20:58.255Z,21.20
2018-06-16T20:23:27.770Z,21.20
2018-06-16T20:25:57.302Z,21.20
2018-06-16T20:28:26.913Z,21.10
2018-06-16T20:30:56.468Z,21.00
2018-06-16T20:33:26.040Z,21.00
2018-06-16T20:35:55.544Z,20.90
2018-06-16T20:38:25.122Z,20.80
2018-06-16T20:40:54.657Z,20.70
2018-06-16T20:43:24.195Z,20.60
2018-06-16T20:48:22.705Z,20.50
2018-06-16T20:50:52.179Z,20.50
2018-06-16T20:53:21.683Z,20.40
2018-06-16T20:55:51.310Z,20.40
2018-06-16T21:00:49.958Z,20.20
2018-06-16T21:03:19.532Z,20.10
2018-06-16T21:05:48.811Z,20.10
2018-06-16T21:08:18.115Z,20.00
2018-06-16T21:10:47.423Z,19.90
2018-06-16T21:13:16.756Z,19.80
2018-06-16T21:15:46.084Z,19.60
2018-06-16T21:18:15.367Z,19.50
2018-06-16T21:20:44.692Z,19.30
2018-06-16T21:23:14.006Z,19.30
2018-06-16T21:25:43.337Z,19.20
2018-06-16T21:28:12.647Z,19.10
2018-06-16T21:30:42.217Z,19.00
2018-06-16T21:35:40.512Z,18.80
2018-06-16T21:38:09.795Z,18.70
2018-06-16T21:40:39.140Z,18.80
2018-06-16T21:43:08.501Z,18.80
2018-06-16T21:45:38.131Z,18.70
2018-06-16T21:48:07.735Z,18.60
2018-06-16T21:53:06.084Z,18.50
2018-06-16T21:55:35.436Z,18.50
2018-06-16T21:58:04.803Z,18.40
2018-06-16T22:00:34.166Z,18.30
2018-06-16T22:03:04.855Z,18.30
2018-06-16T22:05:34.612Z,18.30
2018-06-16T22:08:34.858Z,18.30
2018-06-16T22:13:34.048Z,18.00
2018-06-16T22:16:03.693Z,17.90
2018-06-16T22:18:33.176Z,17.90
2018-06-16T22:21:02.732Z,17.80
2018-06-16T22:23:32.245Z,17.80
2018-06-16T22:28:30.876Z,17.60
2018-06-16T22:31:00.430Z,17.60
2018-06-16T22:33:30.003Z,17.50
2018-06-16T22:35:59.616Z,17.60
2018-06-16T22:38:29.272Z,17.60
2018-06-16T22:40:58.916Z,17.60
2018-06-16T22:43:28.496Z,17.50
2018-06-16T22:48:27.077Z,17.50
2018-06-16T22:50:56.675Z,17.40
2018-06-16T22:53:26.124Z,17.50
2018-06-16T22:55:55.845Z,17.50
2018-06-16T22:58:25.347Z,17.40
2018-06-16T23:00:54.968Z,17.30
2018-06-16T23:03:24.570Z,17.30
2018-06-16T23:05:54.256Z,17.30
2018-06-16T23:10:52.967Z,17.20
2018-06-16T23:13:22.520Z,17.30
2018-06-16T23:15:52.039Z,17.20
2018-06-16T23:18:21.606Z,17.20
2018-06-16T23:20:51.150Z,17.30
2018-06-16T23:23:20.657Z,17.30
2018-06-16T23:25:50.120Z,17.20
2018-06-16T23:28:19.686Z,17.20
2018-06-16T23:30:49.231Z,17.20
2018-06-16T23:33:18.775Z,17.20
2018-06-16T23:35:48.291Z,17.20
2018-06-16T23:38:17.925Z,17.20
2018-06-16T23:43:16.447Z,17.00
2018-06-16T23:45:45.978Z,17.10
2018-06-16T23:48:15.472Z,17.10
2018-06-16T23:50:44.913Z,17.00
2018-06-16T23:53:14.510Z,17.00
2018-06-16T23:55:44.075Z,17.00
2018-06-16T23:58:13.712Z,17.00
